sensor_id;sensor_type;location;lat;lon;timestamp;P1;durP1;ratioP1;P2;durP2;ratioP2
72051;SDS011;68254;63.178;14.652;2024-01-25T00:02:31;0.30;;;0.30;;
72051;SDS011;68254;63.178;14.652;2024-01-25T00:07:59;0.47;;;0.40;;
72051;SDS011;68254;63.178;14.652;2024-01-25T00:13:27;1.50;;;1.00;;
72051;SDS011;68254;63.178;14.652;2024-01-25T00:18:56;2.17;;;0.50;;
72051;SDS011;68254;63.178;14.652;2024-01-25T00:21:21;0.43;;;0.43;;
72051;SDS011;68254;63.178;14.652;2024-01-25T00:23:47;1.70;;;0.77;;
72051;SDS011;68254;63.178;14.652;2024-01-25T00:26:13;0.60;;;0.50;;
72051;SDS011;68254;63.178;14.652;2024-01-25T00:28:38;0.30;;;0.30;;
72051;SDS011;68254;63.178;14.652;2024-01-25T00:31:04;0.40;;;0.30;;
72051;SDS011;68254;63.178;14.652;2024-01-25T00:33:29;0.87;;;0.60;;
72051;SDS011;68254;63.178;14.652;2024-01-25T00:35:55;0.47;;;0.40;;
72051;SDS011;68254;63.178;14.652;2024-01-25T00:38:21;0.47;;;0.30;;
72051;SDS011;68254;63.178;14.652;2024-01-25T00:40:46;0.43;;;0.37;;
72051;SDS011;68254;63.178;14.652;2024-01-25T00:43:12;2.20;;;0.60;;
72051;SDS011;68254;63.178;14.652;2024-01-25T00:45:38;1.10;;;0.40;;
72051;SDS011;68254;63.178;14.652;2024-01-25T00:50:59;0.97;;;0.40;;
72051;SDS011;68254;63.178;14.652;2024-01-25T00:53:25;2.30;;;0.60;;
72051;SDS011;68254;63.178;14.652;2024-01-25T01:03:27;0.40;;;0.40;;
72051;SDS011;68254;63.178;14.652;2024-01-25T01:05:53;3.40;;;0.60;;
72051;SDS011;68254;63.178;14.652;2024-01-25T01:08:19;0.30;;;0.30;;
72051;SDS011;68254;63.178;14.652;2024-01-25T01:15:54;2.20;;;0.40;;
72051;SDS011;68254;63.178;14.652;2024-01-25T01:28:34;1.60;;;0.20;;
72051;SDS011;68254;63.178;14.652;2024-01-25T01:31:00;3.20;;;0.30;;
72051;SDS011;68254;63.178;14.652;2024-01-25T01:33:25;0.83;;;0.40;;
72051;SDS011;68254;63.178;14.652;2024-01-25T01:35:51;0.67;;;0.50;;
72051;SDS011;68254;63.178;14.652;2024-01-25T01:38:16;0.30;;;0.30;;
72051;SDS011;68254;63.178;14.652;2024-01-25T01:40:42;0.20;;;0.20;;
72051;SDS011;68254;63.178;14.652;2024-01-25T01:43:17;0.97;;;0.30;;
72051;SDS011;68254;63.178;14.652;2024-01-25T01:45:42;0.20;;;0.20;;
72051;SDS011;68254;63.178;14.652;2024-01-25T01:48:08;0.40;;;0.30;;
72051;SDS011;68254;63.178;14.652;2024-01-25T01:50:33;0.23;;;0.20;;
72051;SDS011;68254;63.178;14.652;2024-01-25T01:52:59;1.53;;;0.30;;
72051;SDS011;68254;63.178;14.652;2024-01-25T01:55:24;0.80;;;0.37;;
72051;SDS011;68254;63.178;14.652;2024-01-25T01:57:50;0.30;;;0.30;;
72051;SDS011;68254;63.178;14.652;2024-01-25T02:00:15;0.80;;;0.27;;
72051;SDS011;68254;63.178;14.652;2024-01-25T02:08:09;0.50;;;0.30;;
72051;SDS011;68254;63.178;14.652;2024-01-25T02:10:43;0.40;;;0.30;;
72051;SDS011;68254;63.178;14.652;2024-01-25T02:13:09;0.20;;;0.20;;
72051;SDS011;68254;63.178;14.652;2024-01-25T02:15:34;0.30;;;0.30;;
72051;SDS011;68254;63.178;14.652;2024-01-25T02:18:00;0.53;;;0.23;;
72051;SDS011;68254;63.178;14.652;2024-01-25T02:20:26;0.70;;;0.33;;
72051;SDS011;68254;63.178;14.652;2024-01-25T02:22:51;0.30;;;0.20;;
72051;SDS011;68254;63.178;14.652;2024-01-25T02:25:17;0.40;;;0.40;;
72051;SDS011;68254;63.178;14.652;2024-01-25T02:27:42;0.30;;;0.30;;
72051;SDS011;68254;63.178;14.652;2024-01-25T02:30:08;2.77;;;0.30;;
72051;SDS011;68254;63.178;14.652;2024-01-25T02:32:34;0.20;;;0.20;;
72051;SDS011;68254;63.178;14.652;2024-01-25T02:35:00;0.63;;;0.30;;
72051;SDS011;68254;63.178;14.652;2024-01-25T02:37:26;0.47;;;0.47;;
72051;SDS011;68254;63.178;14.652;2024-01-25T02:39:51;0.47;;;0.30;;
72051;SDS011;68254;63.178;14.652;2024-01-25T02:42:30;0.53;;;0.37;;
72051;SDS011;68254;63.178;14.652;2024-01-25T02:45:05;0.70;;;0.50;;
72051;SDS011;68254;63.178;14.652;2024-01-25T02:47:30;0.80;;;0.43;;
72051;SDS011;68254;63.178;14.652;2024-01-25T02:49:55;0.67;;;0.40;;
72051;SDS011;68254;63.178;14.652;2024-01-25T02:52:21;1.80;;;1.13;;
72051;SDS011;68254;63.178;14.652;2024-01-25T02:54:46;1.23;;;0.50;;
72051;SDS011;68254;63.178;14.652;2024-01-25T02:57:12;2.17;;;0.70;;
72051;SDS011;68254;63.178;14.652;2024-01-25T02:59:37;1.00;;;0.90;;
72051;SDS011;68254;63.178;14.652;2024-01-25T03:02:03;1.07;;;0.77;;
72051;SDS011;68254;63.178;14.652;2024-01-25T03:04:28;1.07;;;0.77;;
72051;SDS011;68254;63.178;14.652;2024-01-25T03:06:54;1.10;;;0.73;;
72051;SDS011;68254;63.178;14.652;2024-01-25T03:09:19;0.87;;;0.63;;
72051;SDS011;68254;63.178;14.652;2024-01-25T03:11:46;1.73;;;0.60;;
72051;SDS011;68254;63.178;14.652;2024-01-25T03:14:12;0.70;;;0.50;;
72051;SDS011;68254;63.178;14.652;2024-01-25T03:16:43;2.13;;;0.73;;
72051;SDS011;68254;63.178;14.652;2024-01-25T03:19:10;0.40;;;0.33;;
72051;SDS011;68254;63.178;14.652;2024-01-25T03:21:35;0.63;;;0.60;;
72051;SDS011;68254;63.178;14.652;2024-01-25T03:24:01;0.50;;;0.47;;
72051;SDS011;68254;63.178;14.652;2024-01-25T03:26:27;0.53;;;0.40;;
72051;SDS011;68254;63.178;14.652;2024-01-25T03:28:52;0.57;;;0.50;;
72051;SDS011;68254;63.178;14.652;2024-01-25T03:31:17;0.70;;;0.70;;
72051;SDS011;68254;63.178;14.652;2024-01-25T03:33:43;0.40;;;0.40;;
72051;SDS011;68254;63.178;14.652;2024-01-25T03:36:08;0.93;;;0.60;;
72051;SDS011;68254;63.178;14.652;2024-01-25T03:38:34;0.70;;;0.53;;
72051;SDS011;68254;63.178;14.652;2024-01-25T03:40:59;0.63;;;0.60;;
72051;SDS011;68254;63.178;14.652;2024-01-25T03:43:26;0.83;;;0.50;;
72051;SDS011;68254;63.178;14.652;2024-01-25T03:45:52;0.53;;;0.50;;
72051;SDS011;68254;63.178;14.652;2024-01-25T03:48:17;1.40;;;0.60;;
72051;SDS011;68254;63.178;14.652;2024-01-25T03:50:43;0.40;;;0.30;;
72051;SDS011;68254;63.178;14.652;2024-01-25T03:53:08;0.80;;;0.50;;
72051;SDS011;68254;63.178;14.652;2024-01-25T03:55:34;0.67;;;0.33;;
72051;SDS011;68254;63.178;14.652;2024-01-25T03:57:59;0.50;;;0.30;;
72051;SDS011;68254;63.178;14.652;2024-01-25T04:00:25;0.60;;;0.50;;
72051;SDS011;68254;63.178;14.652;2024-01-25T04:02:50;0.40;;;0.40;;
72051;SDS011;68254;63.178;14.652;2024-01-25T04:05:16;0.90;;;0.60;;
72051;SDS011;68254;63.178;14.652;2024-01-25T04:07:42;0.40;;;0.40;;
72051;SDS011;68254;63.178;14.652;2024-01-25T04:10:08;0.60;;;0.50;;
72051;SDS011;68254;63.178;14.652;2024-01-25T04:15:34;2.40;;;0.70;;
72051;SDS011;68254;63.178;14.652;2024-01-25T04:18:04;0.93;;;0.60;;
72051;SDS011;68254;63.178;14.652;2024-01-25T04:20:30;0.80;;;0.73;;
72051;SDS011;68254;63.178;14.652;2024-01-25T04:22:56;0.93;;;0.80;;
72051;SDS011;68254;63.178;14.652;2024-01-25T04:25:22;0.97;;;0.70;;
72051;SDS011;68254;63.178;14.652;2024-01-25T04:27:47;1.20;;;0.70;;
72051;SDS011;68254;63.178;14.652;2024-01-25T04:30:13;0.63;;;0.50;;
72051;SDS011;68254;63.178;14.652;2024-01-25T04:32:39;1.97;;;0.53;;
72051;SDS011;68254;63.178;14.652;2024-01-25T04:35:05;1.67;;;1.00;;
72051;SDS011;68254;63.178;14.652;2024-01-25T04:37:31;1.60;;;1.03;;
72051;SDS011;68254;63.178;14.652;2024-01-25T04:39:56;1.00;;;0.80;;
72051;SDS011;68254;63.178;14.652;2024-01-25T04:42:22;0.73;;;0.40;;
72051;SDS011;68254;63.178;14.652;2024-01-25T04:44:47;0.50;;;0.50;;
72051;SDS011;68254;63.178;14.652;2024-01-25T04:47:13;0.57;;;0.50;;
72051;SDS011;68254;63.178;14.652;2024-01-25T04:49:39;0.50;;;0.50;;
72051;SDS011;68254;63.178;14.652;2024-01-25T04:52:05;0.43;;;0.43;;
72051;SDS011;68254;63.178;14.652;2024-01-25T04:54:31;1.13;;;0.57;;
72051;SDS011;68254;63.178;14.652;2024-01-25T04:56:56;0.40;;;0.40;;
72051;SDS011;68254;63.178;14.652;2024-01-25T04:59:22;0.87;;;0.60;;
72051;SDS011;68254;63.178;14.652;2024-01-25T05:01:47;1.60;;;0.80;;
72051;SDS011;68254;63.178;14.652;2024-01-25T05:04:13;0.80;;;0.70;;
72051;SDS011;68254;63.178;14.652;2024-01-25T05:06:38;0.57;;;0.57;;
72051;SDS011;68254;63.178;14.652;2024-01-25T05:09:04;0.97;;;0.50;;
72051;SDS011;68254;63.178;14.652;2024-01-25T05:11:30;0.87;;;0.80;;
72051;SDS011;68254;63.178;14.652;2024-01-25T05:13:56;0.63;;;0.40;;
72051;SDS011;68254;63.178;14.652;2024-01-25T05:16:42;1.77;;;0.70;;
72051;SDS011;68254;63.178;14.652;2024-01-25T05:19:08;0.77;;;0.67;;
72051;SDS011;68254;63.178;14.652;2024-01-25T05:21:40;0.80;;;0.43;;
72051;SDS011;68254;63.178;14.652;2024-01-25T05:24:43;1.03;;;0.73;;
72051;SDS011;68254;63.178;14.652;2024-01-25T05:27:18;2.27;;;0.77;;
72051;SDS011;68254;63.178;14.652;2024-01-25T05:29:43;1.80;;;0.50;;
72051;SDS011;68254;63.178;14.652;2024-01-25T05:32:09;0.80;;;0.80;;
72051;SDS011;68254;63.178;14.652;2024-01-25T05:34:34;1.37;;;0.70;;
72051;SDS011;68254;63.178;14.652;2024-01-25T05:36:59;1.30;;;0.90;;
72051;SDS011;68254;63.178;14.652;2024-01-25T05:39:25;2.37;;;0.80;;
72051;SDS011;68254;63.178;14.652;2024-01-25T05:41:51;1.97;;;0.80;;
72051;SDS011;68254;63.178;14.652;2024-01-25T05:44:16;2.07;;;1.10;;
72051;SDS011;68254;63.178;14.652;2024-01-25T05:46:42;1.90;;;0.97;;
72051;SDS011;68254;63.178;14.652;2024-01-25T05:49:07;2.10;;;0.93;;
72051;SDS011;68254;63.178;14.652;2024-01-25T05:54:03;2.13;;;1.57;;
72051;SDS011;68254;63.178;14.652;2024-01-25T06:01:57;4.57;;;2.88;;
72051;SDS011;68254;63.178;14.652;2024-01-25T06:04:22;3.77;;;1.50;;
72051;SDS011;68254;63.178;14.652;2024-01-25T06:06:47;1.77;;;1.30;;
72051;SDS011;68254;63.178;14.652;2024-01-25T06:09:13;1.27;;;0.90;;
72051;SDS011;68254;63.178;14.652;2024-01-25T06:11:47;7.88;;;1.42;;
72051;SDS011;68254;63.178;14.652;2024-01-25T06:16:47;2.90;;;0.83;;
72051;SDS011;68254;63.178;14.652;2024-01-25T06:19:13;2.20;;;1.07;;
72051;SDS011;68254;63.178;14.652;2024-01-25T06:21:38;1.60;;;0.90;;
72051;SDS011;68254;63.178;14.652;2024-01-25T06:24:05;1.87;;;0.90;;
72051;SDS011;68254;63.178;14.652;2024-01-25T06:26:30;2.00;;;1.00;;
72051;SDS011;68254;63.178;14.652;2024-01-25T06:31:29;2.47;;;1.33;;
72051;SDS011;68254;63.178;14.652;2024-01-25T06:33:54;2.07;;;1.47;;
72051;SDS011;68254;63.178;14.652;2024-01-25T06:36:32;5.77;;;1.40;;
72051;SDS011;68254;63.178;14.652;2024-01-25T06:38:57;5.13;;;2.10;;
72051;SDS011;68254;63.178;14.652;2024-01-25T06:41:23;5.13;;;2.00;;
72051;SDS011;68254;63.178;14.652;2024-01-25T06:43:48;4.47;;;1.70;;
72051;SDS011;68254;63.178;14.652;2024-01-25T06:46:14;3.27;;;1.73;;
72051;SDS011;68254;63.178;14.652;2024-01-25T06:48:43;2.08;;;1.30;;
72051;SDS011;68254;63.178;14.652;2024-01-25T06:51:13;2.00;;;1.47;;
72051;SDS011;68254;63.178;14.652;2024-01-25T06:53:39;1.43;;;1.27;;
72051;SDS011;68254;63.178;14.652;2024-01-25T06:56:06;1.50;;;1.30;;
72051;SDS011;68254;63.178;14.652;2024-01-25T06:58:52;3.17;;;1.57;;
72051;SDS011;68254;63.178;14.652;2024-01-25T07:01:22;1.97;;;1.10;;
72051;SDS011;68254;63.178;14.652;2024-01-25T07:06:24;2.53;;;1.10;;
72051;SDS011;68254;63.178;14.652;2024-01-25T07:08:51;2.37;;;0.80;;
72051;SDS011;68254;63.178;14.652;2024-01-25T07:11:20;1.43;;;0.80;;
72051;SDS011;68254;63.178;14.652;2024-01-25T07:14:06;1.10;;;0.80;;
72051;SDS011;68254;63.178;14.652;2024-01-25T07:16:31;2.13;;;1.43;;
72051;SDS011;68254;63.178;14.652;2024-01-25T07:18:57;6.13;;;3.23;;
72051;SDS011;68254;63.178;14.652;2024-01-25T07:21:22;1.30;;;0.90;;
72051;SDS011;68254;63.178;14.652;2024-01-25T07:23:48;3.00;;;1.40;;
72051;SDS011;68254;63.178;14.652;2024-01-25T07:26:17;0.90;;;0.87;;
72051;SDS011;68254;63.178;14.652;2024-01-25T07:42:23;3.10;;;1.50;;
72051;SDS011;68254;63.178;14.652;2024-01-25T07:44:53;2.30;;;1.70;;
72051;SDS011;68254;63.178;14.652;2024-01-25T07:47:23;3.67;;;1.30;;
72051;SDS011;68254;63.178;14.652;2024-01-25T07:57:34;4.47;;;2.03;;
72051;SDS011;68254;63.178;14.652;2024-01-25T08:02:29;3.23;;;2.03;;
72051;SDS011;68254;63.178;14.652;2024-01-25T08:08:04;2.30;;;1.70;;
72051;SDS011;68254;63.178;14.652;2024-01-25T08:10:49;4.17;;;1.93;;
72051;SDS011;68254;63.178;14.652;2024-01-25T08:13:25;2.53;;;1.83;;
72051;SDS011;68254;63.178;14.652;2024-01-25T08:16:28;4.60;;;2.30;;
72051;SDS011;68254;63.178;14.652;2024-01-25T08:19:10;5.63;;;2.50;;
72051;SDS011;68254;63.178;14.652;2024-01-25T08:21:56;3.40;;;1.97;;
72051;SDS011;68254;63.178;14.652;2024-01-25T08:24:23;3.83;;;1.57;;
72051;SDS011;68254;63.178;14.652;2024-01-25T08:26:49;1.73;;;1.20;;
72051;SDS011;68254;63.178;14.652;2024-01-25T08:29:19;3.27;;;1.03;;
72051;SDS011;68254;63.178;14.652;2024-01-25T08:34:30;3.07;;;1.40;;
72051;SDS011;68254;63.178;14.652;2024-01-25T08:36:59;1.60;;;1.07;;
72051;SDS011;68254;63.178;14.652;2024-01-25T08:44:41;8.23;;;1.40;;
72051;SDS011;68254;63.178;14.652;2024-01-25T08:47:19;2.37;;;1.33;;
72051;SDS011;68254;63.178;14.652;2024-01-25T08:49:53;3.33;;;1.80;;
72051;SDS011;68254;63.178;14.652;2024-01-25T08:52:44;1.83;;;1.43;;
72051;SDS011;68254;63.178;14.652;2024-01-25T08:58:59;2.20;;;1.30;;
72051;SDS011;68254;63.178;14.652;2024-01-25T09:01:25;1.63;;;1.50;;
72051;SDS011;68254;63.178;14.652;2024-01-25T09:07:01;1.63;;;1.10;;
72051;SDS011;68254;63.178;14.652;2024-01-25T09:09:30;2.90;;;1.23;;
72051;SDS011;68254;63.178;14.652;2024-01-25T09:29:59;4.33;;;1.30;;
72051;SDS011;68254;63.178;14.652;2024-01-25T09:35:16;2.17;;;1.47;;
72051;SDS011;68254;63.178;14.652;2024-01-25T09:40:54;2.53;;;1.37;;
72051;SDS011;68254;63.178;14.652;2024-01-25T09:43:30;3.63;;;1.57;;
72051;SDS011;68254;63.178;14.652;2024-01-25T09:45:56;3.90;;;1.10;;
72051;SDS011;68254;63.178;14.652;2024-01-25T09:48:33;4.23;;;1.23;;
72051;SDS011;68254;63.178;14.652;2024-01-25T09:51:00;3.70;;;1.77;;
72051;SDS011;68254;63.178;14.652;2024-01-25T09:56:05;2.90;;;1.33;;
72051;SDS011;68254;63.178;14.652;2024-01-25T10:10:43;2.07;;;1.07;;
72051;SDS011;68254;63.178;14.652;2024-01-25T10:43:15;1.57;;;0.70;;
72051;SDS011;68254;63.178;14.652;2024-01-25T10:53:24;1.77;;;1.00;;
72051;SDS011;68254;63.178;14.652;2024-01-25T11:03:47;2.83;;;0.90;;
72051;SDS011;68254;63.178;14.652;2024-01-25T11:06:13;4.67;;;1.07;;
72051;SDS011;68254;63.178;14.652;2024-01-25T11:08:51;1.43;;;0.90;;
72051;SDS011;68254;63.178;14.652;2024-01-25T11:14:40;1.07;;;0.90;;
72051;SDS011;68254;63.178;14.652;2024-01-25T11:19:48;1.20;;;0.80;;
72051;SDS011;68254;63.178;14.652;2024-01-25T11:24:50;1.40;;;0.70;;
72051;SDS011;68254;63.178;14.652;2024-01-25T11:27:25;0.97;;;0.77;;
72051;SDS011;68254;63.178;14.652;2024-01-25T11:29:51;1.80;;;0.80;;
72051;SDS011;68254;63.178;14.652;2024-01-25T11:44:06;3.20;;;0.47;;
72051;SDS011;68254;63.178;14.652;2024-01-25T11:52:08;1.00;;;0.80;;
72051;SDS011;68254;63.178;14.652;2024-01-25T11:57:40;1.80;;;0.70;;
72051;SDS011;68254;63.178;14.652;2024-01-25T12:13:52;4.00;;;0.53;;
72051;SDS011;68254;63.178;14.652;2024-01-25T12:29:41;1.13;;;0.63;;
72051;SDS011;68254;63.178;14.652;2024-01-25T12:32:47;1.95;;;0.82;;
72051;SDS011;68254;63.178;14.652;2024-01-25T12:35:14;1.27;;;0.65;;
72051;SDS011;68254;63.178;14.652;2024-01-25T12:51:21;0.63;;;0.63;;
72051;SDS011;68254;63.178;14.652;2024-01-25T12:56:21;0.53;;;0.50;;
72051;SDS011;68254;63.178;14.652;2024-01-25T13:10:07;2.33;;;0.90;;
72051;SDS011;68254;63.178;14.652;2024-01-25T13:15:33;1.13;;;0.50;;
72051;SDS011;68254;63.178;14.652;2024-01-25T13:23:22;4.60;;;2.60;;
72051;SDS011;68254;63.178;14.652;2024-01-25T13:25:47;1.27;;;0.83;;
72051;SDS011;68254;63.178;14.652;2024-01-25T13:31:03;2.30;;;0.70;;
72051;SDS011;68254;63.178;14.652;2024-01-25T13:34:04;1.43;;;0.80;;
72051;SDS011;68254;63.178;14.652;2024-01-25T13:44:13;3.83;;;1.90;;
72051;SDS011;68254;63.178;14.652;2024-01-25T13:56:58;2.23;;;1.10;;
72051;SDS011;68254;63.178;14.652;2024-01-25T13:59:38;2.57;;;0.80;;
72051;SDS011;68254;63.178;14.652;2024-01-25T14:10:24;1.80;;;0.83;;
72051;SDS011;68254;63.178;14.652;2024-01-25T14:20:22;10.33;;;2.23;;
72051;SDS011;68254;63.178;14.652;2024-01-25T14:27:54;1.53;;;0.70;;
72051;SDS011;68254;63.178;14.652;2024-01-25T14:30:19;0.83;;;0.60;;
72051;SDS011;68254;63.178;14.652;2024-01-25T14:35:47;1.27;;;0.87;;
72051;SDS011;68254;63.178;14.652;2024-01-25T14:38:17;1.03;;;0.93;;
72051;SDS011;68254;63.178;14.652;2024-01-25T14:45:52;2.57;;;1.23;;
72051;SDS011;68254;63.178;14.652;2024-01-25T14:48:41;2.83;;;1.20;;
72051;SDS011;68254;63.178;14.652;2024-01-25T14:56:38;2.07;;;0.80;;
72051;SDS011;68254;63.178;14.652;2024-01-25T15:02:03;2.03;;;1.23;;
72051;SDS011;68254;63.178;14.652;2024-01-25T15:04:34;1.37;;;1.20;;
72051;SDS011;68254;63.178;14.652;2024-01-25T15:17:41;1.67;;;1.00;;
72051;SDS011;68254;63.178;14.652;2024-01-25T15:20:20;2.53;;;1.70;;
72051;SDS011;68254;63.178;14.652;2024-01-25T15:22:52;2.77;;;1.33;;
72051;SDS011;68254;63.178;14.652;2024-01-25T15:25:17;3.30;;;1.60;;
72051;SDS011;68254;63.178;14.652;2024-01-25T15:27:43;3.00;;;1.40;;
72051;SDS011;68254;63.178;14.652;2024-01-25T15:32:43;8.10;;;2.20;;
72051;SDS011;68254;63.178;14.652;2024-01-25T15:35:22;3.85;;;1.90;;
72051;SDS011;68254;63.178;14.652;2024-01-25T15:37:50;8.77;;;2.27;;
72051;SDS011;68254;63.178;14.652;2024-01-25T15:40:17;6.57;;;3.27;;
72051;SDS011;68254;63.178;14.652;2024-01-25T15:42:42;4.97;;;1.70;;
72051;SDS011;68254;63.178;14.652;2024-01-25T15:45:10;11.70;;;2.40;;
72051;SDS011;68254;63.178;14.652;2024-01-25T15:47:36;8.37;;;3.53;;
72051;SDS011;68254;63.178;14.652;2024-01-25T15:52:34;3.47;;;2.43;;
72051;SDS011;68254;63.178;14.652;2024-01-25T15:57:38;3.97;;;2.23;;
72051;SDS011;68254;63.178;14.652;2024-01-25T16:00:04;9.83;;;3.70;;
72051;SDS011;68254;63.178;14.652;2024-01-25T16:02:29;6.67;;;2.43;;
72051;SDS011;68254;63.178;14.652;2024-01-25T16:07:51;3.00;;;2.23;;
72051;SDS011;68254;63.178;14.652;2024-01-25T16:10:17;4.33;;;2.20;;
72051;SDS011;68254;63.178;14.652;2024-01-25T16:12:43;4.13;;;1.90;;
72051;SDS011;68254;63.178;14.652;2024-01-25T16:15:08;3.00;;;1.90;;
72051;SDS011;68254;63.178;14.652;2024-01-25T16:17:35;5.23;;;2.60;;
72051;SDS011;68254;63.178;14.652;2024-01-25T16:20:25;7.57;;;2.13;;
72051;SDS011;68254;63.178;14.652;2024-01-25T16:22:52;7.37;;;2.30;;
72051;SDS011;68254;63.178;14.652;2024-01-25T16:25:18;2.77;;;1.83;;
72051;SDS011;68254;63.178;14.652;2024-01-25T16:33:30;4.30;;;2.13;;
72051;SDS011;68254;63.178;14.652;2024-01-25T16:44:14;5.20;;;2.93;;
72051;SDS011;68254;63.178;14.652;2024-01-25T16:54:25;5.63;;;2.83;;
72051;SDS011;68254;63.178;14.652;2024-01-25T16:57:29;5.70;;;2.70;;
72051;SDS011;68254;63.178;14.652;2024-01-25T16:59:54;6.60;;;3.43;;
72051;SDS011;68254;63.178;14.652;2024-01-25T17:02:20;6.00;;;2.83;;
72051;SDS011;68254;63.178;14.652;2024-01-25T17:04:51;5.27;;;3.23;;
72051;SDS011;68254;63.178;14.652;2024-01-25T17:09:54;7.03;;;3.07;;
72051;SDS011;68254;63.178;14.652;2024-01-25T17:13:00;5.70;;;2.57;;
72051;SDS011;68254;63.178;14.652;2024-01-25T17:15:25;6.30;;;2.70;;
72051;SDS011;68254;63.178;14.652;2024-01-25T17:17:51;5.70;;;2.27;;
72051;SDS011;68254;63.178;14.652;2024-01-25T17:20:17;6.03;;;2.77;;
72051;SDS011;68254;63.178;14.652;2024-01-25T17:25:18;5.00;;;2.17;;
72051;SDS011;68254;63.178;14.652;2024-01-25T17:30:19;7.30;;;2.57;;
72051;SDS011;68254;63.178;14.652;2024-01-25T17:32:45;4.93;;;2.73;;
72051;SDS011;68254;63.178;14.652;2024-01-25T17:35:10;5.93;;;2.73;;
72051;SDS011;68254;63.178;14.652;2024-01-25T17:37:42;3.30;;;2.07;;
72051;SDS011;68254;63.178;14.652;2024-01-25T17:45:16;6.57;;;2.57;;
72051;SDS011;68254;63.178;14.652;2024-01-25T17:47:42;3.63;;;2.50;;
72051;SDS011;68254;63.178;14.652;2024-01-25T17:50:09;4.73;;;2.37;;
72051;SDS011;68254;63.178;14.652;2024-01-25T17:55:09;5.97;;;2.77;;
72051;SDS011;68254;63.178;14.652;2024-01-25T18:02:51;4.57;;;2.97;;
72051;SDS011;68254;63.178;14.652;2024-01-25T18:05:16;2.97;;;2.30;;
72051;SDS011;68254;63.178;14.652;2024-01-25T18:07:42;9.80;;;2.80;;
72051;SDS011;68254;63.178;14.652;2024-01-25T18:12:44;6.60;;;3.17;;
72051;SDS011;68254;63.178;14.652;2024-01-25T18:15:09;5.33;;;2.43;;
72051;SDS011;68254;63.178;14.652;2024-01-25T18:17:35;6.40;;;1.80;;
72051;SDS011;68254;63.178;14.652;2024-01-25T18:26:01;5.63;;;2.80;;
72051;SDS011;68254;63.178;14.652;2024-01-25T18:28:48;5.90;;;2.13;;
72051;SDS011;68254;63.178;14.652;2024-01-25T18:31:17;4.17;;;2.10;;
72051;SDS011;68254;63.178;14.652;2024-01-25T18:33:43;6.00;;;2.30;;
72051;SDS011;68254;63.178;14.652;2024-01-25T18:38:44;5.63;;;3.00;;
72051;SDS011;68254;63.178;14.652;2024-01-25T18:41:19;7.30;;;3.27;;
72051;SDS011;68254;63.178;14.652;2024-01-25T18:43:44;7.90;;;3.53;;
72051;SDS011;68254;63.178;14.652;2024-01-25T18:46:09;7.00;;;3.20;;
72051;SDS011;68254;63.178;14.652;2024-01-25T18:48:36;6.87;;;2.83;;
72051;SDS011;68254;63.178;14.652;2024-01-25T18:51:19;4.97;;;3.33;;
72051;SDS011;68254;63.178;14.652;2024-01-25T19:04:37;12.10;;;4.60;;
72051;SDS011;68254;63.178;14.652;2024-01-25T19:07:03;9.60;;;3.87;;
72051;SDS011;68254;63.178;14.652;2024-01-25T19:09:29;9.67;;;4.40;;
72051;SDS011;68254;63.178;14.652;2024-01-25T19:11:55;10.80;;;4.10;;
72051;SDS011;68254;63.178;14.652;2024-01-25T19:14:30;6.30;;;3.17;;
72051;SDS011;68254;63.178;14.652;2024-01-25T19:27:40;3.75;;;2.47;;
72051;SDS011;68254;63.178;14.652;2024-01-25T19:30:05;5.13;;;2.87;;
72051;SDS011;68254;63.178;14.652;2024-01-25T19:32:52;6.37;;;2.90;;
72051;SDS011;68254;63.178;14.652;2024-01-25T19:35:23;7.40;;;3.23;;
72051;SDS011;68254;63.178;14.652;2024-01-25T19:37:51;5.60;;;2.72;;
72051;SDS011;68254;63.178;14.652;2024-01-25T19:40:16;3.87;;;2.30;;
72051;SDS011;68254;63.178;14.652;2024-01-25T19:42:46;5.07;;;3.63;;
72051;SDS011;68254;63.178;14.652;2024-01-25T19:45:26;6.10;;;2.20;;
72051;SDS011;68254;63.178;14.652;2024-01-25T19:50:34;3.63;;;2.27;;
72051;SDS011;68254;63.178;14.652;2024-01-25T19:58:36;3.73;;;1.77;;
72051;SDS011;68254;63.178;14.652;2024-01-25T20:01:16;5.17;;;2.17;;
72051;SDS011;68254;63.178;14.652;2024-01-25T20:06:18;4.00;;;2.20;;
72051;SDS011;68254;63.178;14.652;2024-01-25T20:14:01;2.47;;;1.50;;
72051;SDS011;68254;63.178;14.652;2024-01-25T20:24:09;4.07;;;1.57;;
72051;SDS011;68254;63.178;14.652;2024-01-25T20:26:35;1.67;;;1.10;;
72051;SDS011;68254;63.178;14.652;2024-01-25T20:29:01;2.63;;;1.60;;
72051;SDS011;68254;63.178;14.652;2024-01-25T20:34:22;2.10;;;1.57;;
72051;SDS011;68254;63.178;14.652;2024-01-25T20:37:13;3.60;;;1.70;;
72051;SDS011;68254;63.178;14.652;2024-01-25T20:39:50;3.23;;;1.57;;
72051;SDS011;68254;63.178;14.652;2024-01-25T20:55:37;3.30;;;1.40;;
72051;SDS011;68254;63.178;14.652;2024-01-25T20:58:13;1.23;;;1.10;;
72051;SDS011;68254;63.178;14.652;2024-01-25T21:00:41;2.07;;;1.00;;
72051;SDS011;68254;63.178;14.652;2024-01-25T21:03:22;2.97;;;1.33;;
72051;SDS011;68254;63.178;14.652;2024-01-25T21:08:30;1.80;;;1.20;;
72051;SDS011;68254;63.178;14.652;2024-01-25T21:10:56;1.23;;;0.90;;
72051;SDS011;68254;63.178;14.652;2024-01-25T21:13:22;2.30;;;1.37;;
72051;SDS011;68254;63.178;14.652;2024-01-25T21:16:05;1.67;;;1.00;;
72051;SDS011;68254;63.178;14.652;2024-01-25T21:21:06;2.43;;;1.10;;
72051;SDS011;68254;63.178;14.652;2024-01-25T21:23:34;2.00;;;1.17;;
72051;SDS011;68254;63.178;14.652;2024-01-25T21:28:34;1.90;;;1.47;;
72051;SDS011;68254;63.178;14.652;2024-01-25T21:31:00;1.80;;;0.70;;
72051;SDS011;68254;63.178;14.652;2024-01-25T21:33:25;0.93;;;0.90;;
72051;SDS011;68254;63.178;14.652;2024-01-25T21:35:51;1.80;;;0.90;;
72051;SDS011;68254;63.178;14.652;2024-01-25T21:38:19;1.10;;;0.70;;
72051;SDS011;68254;63.178;14.652;2024-01-25T21:40:55;1.00;;;0.70;;
72051;SDS011;68254;63.178;14.652;2024-01-25T21:43:20;1.03;;;0.60;;
72051;SDS011;68254;63.178;14.652;2024-01-25T21:45:46;0.70;;;0.57;;
72051;SDS011;68254;63.178;14.652;2024-01-25T21:51:05;0.93;;;0.70;;
72051;SDS011;68254;63.178;14.652;2024-01-25T21:58:38;1.60;;;0.60;;
72051;SDS011;68254;63.178;14.652;2024-01-25T22:01:12;0.80;;;0.73;;
72051;SDS011;68254;63.178;14.652;2024-01-25T22:19:11;0.60;;;0.60;;
72051;SDS011;68254;63.178;14.652;2024-01-25T22:21:36;0.43;;;0.40;;
72051;SDS011;68254;63.178;14.652;2024-01-25T22:24:02;1.90;;;0.80;;
72051;SDS011;68254;63.178;14.652;2024-01-25T22:26:28;2.20;;;0.60;;
72051;SDS011;68254;63.178;14.652;2024-01-25T22:31:56;1.07;;;0.60;;
72051;SDS011;68254;63.178;14.652;2024-01-25T22:34:24;0.68;;;0.52;;
72051;SDS011;68254;63.178;14.652;2024-01-25T22:36:58;1.00;;;0.57;;
72051;SDS011;68254;63.178;14.652;2024-01-25T22:39:23;0.47;;;0.37;;
72051;SDS011;68254;63.178;14.652;2024-01-25T22:41:49;0.47;;;0.40;;
72051;SDS011;68254;63.178;14.652;2024-01-25T22:44:14;0.57;;;0.57;;
72051;SDS011;68254;63.178;14.652;2024-01-25T22:46:39;0.40;;;0.40;;
72051;SDS011;68254;63.178;14.652;2024-01-25T22:57:19;0.40;;;0.37;;
72051;SDS011;68254;63.178;14.652;2024-01-25T22:59:45;0.50;;;0.40;;
72051;SDS011;68254;63.178;14.652;2024-01-25T23:02:11;1.00;;;0.40;;
72051;SDS011;68254;63.178;14.652;2024-01-25T23:04:37;0.33;;;0.30;;
72051;SDS011;68254;63.178;14.652;2024-01-25T23:07:02;2.13;;;0.53;;
72051;SDS011;68254;63.178;14.652;2024-01-25T23:12:01;0.63;;;0.40;;
72051;SDS011;68254;63.178;14.652;2024-01-25T23:14:26;0.40;;;0.33;;
72051;SDS011;68254;63.178;14.652;2024-01-25T23:16:52;0.40;;;0.30;;
72051;SDS011;68254;63.178;14.652;2024-01-25T23:21:54;1.57;;;0.50;;